x

9440910 - Toke Point, Wa (tokw1) Weather Station

4:18 - Wed 27th Jul 2016 All times are PDT. -7 hours from GMT.

  • Wind
    5mph, 7mph gusts
  • Sea Temp 64°f
  • Luft Temp 57°f
  • Sea Pressure 1020.8mb
  • 9440910 - Toke Point, Wa
  • 9440910 - Toke Point, Wa

More Historic Weather Station data

Upgrade to MSW Pro to gain access to the past 30 days of data for over 8000 Wavebouys and Weather Stations around the globe.

Join Pro

Comparision Forecast

View Surf forecast
   
Mi 07/27 4:18 5 7 mph 1020.8mb 64f 57f
4:12 6 7 mph 1020.9mb 64f 57f
4:06 6 8 mph 1020.9mb 64f 57f
4:00 7 8 mph 1020.8mb 64f 57f
3:54 6 7 mph 1020.8mb 64f 57f
3:48 6 7 mph 1020.8mb 64f 57f
3:42 6 8 mph 1020.9mb 64f 57f
3:36 6 7 mph 1020.9mb 64f 57f
3:30 7 8 mph 1020.9mb 64f 57f
3:24 5 8 mph 1020.9mb 64f 57f
3:18 7 9 mph 1020.9mb 64f 58f
3:12 7 10 mph 1020.9mb 64f 58f
3:06 9 10 mph 1021mb 64f 57f
3:00 6 8 mph 1021mb 65f 57f
2:54 6 8 mph 1020.9mb 65f 57f
2:48 6 10 mph 1020.8mb 65f 57f
2:42 7 14 mph 1020.7mb 65f 57f
2:36 8 11 mph 1020.8mb 65f 57f
2:30 11 14 mph 1020.7mb 65f 57f
2:24 9 15 mph 1020.6mb 65f 57f
2:18 8 14 mph 1020.7mb 65f 57f
2:12 14 16 mph 1020.7mb 65f 57f
2:06 10 14 mph 1020.8mb 65f 57f
2:00 9 13 mph 1020.9mb 65f 57f
1:54 11 16 mph 1020.9mb 65f 57f
1:48 9 11 mph 1020.9mb 65f 56f
1:42 8 10 mph 1021.1mb 65f 56f
1:36 9 11 mph 1021.2mb 65f 56f
1:30 10 14 mph 1021.2mb 65f 56f
1:24 7 11 mph 1021.2mb 65f 56f
1:18 8 10 mph 1021.2mb 65f 56f
1:12 6 8 mph 1021.3mb 64f 56f
1:06 9 13 mph 1021.2mb 64f 56f
1:00 9 14 mph 1021.3mb 64f 56f
12:54 10 14 mph 1021.3mb 64f 56f
12:48 8 11 mph 1021.4mb 64f 56f
12:42 8 10 mph 1021.5mb 64f 56f
12:36 8 9 mph 1021.5mb 64f 56f
12:30 9 11 mph 1021.5mb 65f 56f
12:24 10 14 mph 1021.5mb 65f 56f
12:18 9 11 mph 1021.5mb 65f 56f
12:12 7 10 mph 1021.5mb 65f 56f
12:06 8 9 mph 1021.5mb 65f 57f
12:00 8 10 mph 1021.6mb 65f 56f
Di 07/26 11:54 10 15 mph 1021.6mb 64f 57f
11:48 8 11 mph 1021.6mb 63f 57f
11:42 9 15 mph 1021.6mb 64f 57f
11:36 8 13 mph 1021.6mb 64f 57f
11:30 6 8 mph 1021.7mb 64f 57f
11:24 8 14 mph 1021.7mb 64f 57f
11:18 13 16 mph 1021.7mb 63f 57f
11:12 7 13 mph 1021.7mb 63f 57f
11:06 5 9 mph 1021.7mb 63f 57f
11:00 6 9 mph 1021.7mb 63f 57f
10:54 7 11 mph 1021.7mb 63f 57f
10:48 9 13 mph 1021.8mb 63f 57f
10:42 8 14 mph 1021.8mb 63f 57f
10:36 9 11 mph 1021.9mb 63f 57f
10:30 7 10 mph 1021.9mb 63f 57f
10:24 7 11 mph 1021.9mb 63f 57f
10:18 8 14 mph 1022mb 62f 57f
10:12 9 14 mph 1022mb 63f 57f
10:06 11 17 mph 1022.1mb 62f 58f
10:00 10 15 mph 1022.1mb 62f 57f
9:54 14 18 mph 1022mb 62f 57f
9:48 10 18 mph 1021.9mb 62f 58f
9:42 11 15 mph 1022mb 62f 58f
9:36 13 17 mph 1022mb 62f 58f
9:30 9 14 mph 1022mb 62f 58f
9:24 11 15 mph 1021.9mb 62f 58f
9:18 10 14 mph 1021.8mb 62f 58f
9:12 14 17 mph 1021.9mb 62f 58f
9:06 15 17 mph 1021.9mb 61f 58f
9:00 11 18 mph 1021.9mb 62f 58f
8:54 10 18 mph 1021.8mb 62f 58f
8:48 13 17 mph 1021.8mb 62f 58f
8:42 9 17 mph 1021.8mb 62f 58f
8:36 11 16 mph 1021.8mb 62f 58f
8:30 9 15 mph 1021.8mb 61f 58f
8:24 13 15 mph 1021.7mb 60f 58f
8:18 13 21 mph 1021.7mb 60f -
8:12 14 17 mph 1021.8mb 59f -
8:06 11 14 mph 1021.8mb 58f -
8:00 13 18 mph - 58f -
7:54 13 17 mph - 58f -
7:48 10 17 mph 1021.7mb 58f -
7:42 13 17 mph 1021.6mb 56f -
7:36 15 20 mph 1021.6mb 56f -
7:30 13 21 mph - 56f 58f
7:24 10 15 mph - 55f 58f
7:18 10 17 mph 1021.7mb 55f 59f
7:12 14 17 mph 1021.7mb 55f 59f
7:06 14 17 mph 1021.7mb 55f 59f
7:00  -  mph - 55f 59f
6:54  -  mph - 55f 59f
6:48 13 17 mph - - -
6:42 15 22 mph - - -
6:36 13 21 mph - - -
6:30 10 17 mph - 57f -
6:24 11 16 mph - 58f -
6:18 11 14 mph - 58f 60f
6:12 10 17 mph - 59f 60f
6:06 14 18 mph - 59f 60f
6:00  -  mph - 59f 60f
5:54  -  mph - 59f 60f
5:48 15 18 mph 1022mb - -
5:42 13 18 mph 1022.1mb - -
5:36 15 18 mph 1022mb - -
5:30 15 20 mph - 60f 61f
5:24 14 20 mph - 60f 61f
5:18  -  mph - 61f 61f
5:12  -  mph - 61f 61f
5:06  -  mph - 62f 61f
5:00  -  mph - 62f -
4:54  -  mph - 62f -
4:48  -  mph - 62f -
4:42  -  mph - 63f -
4:36  -  mph - 62f -
4:30 15 20 mph - 63f 61f
4:24 15 18 mph - 62f 62f
4:18 14 21 mph 1022.3mb 63f -
4:12 15 22 mph 1022.3mb 64f -
4:06 17 24 mph 1022.4mb 64f -
4:00  -  mph 1022.3mb 64f -
3:54  -  mph 1022.4mb 64f -
3:48  -  mph 1022.4mb 64f -
3:42  -  mph 1022.5mb 63f -
3:36  -  mph 1022.6mb 65f -
3:30 14 23 mph 1022.6mb 65f 62f
3:24 14 22 mph 1022.5mb 64f 62f
3:18 15 20 mph 1022.6mb 64f -
3:12 15 20 mph 1022.7mb 65f -
3:06 13 17 mph 1022.6mb 65f -
3:00  -  mph - 65f 62f
2:54  -  mph - 65f 62f
2:48 13 20 mph - - -
2:42 15 23 mph - 65f -
2:36 16 21 mph - 64f -
2:30 18 23 mph 1022.6mb 65f 62f
2:24 20 23 mph 1022.6mb 65f 62f
2:18 15 21 mph 1022.6mb 65f 63f
2:12 14 17 mph 1022.8mb 66f 63f
2:06 15 18 mph 1022.7mb 65f 63f
2:00 14 18 mph 1022.7mb 65f 63f
1:54 13 16 mph 1022.8mb 65f 63f
1:48 11 15 mph 1022.8mb 65f 63f
1:42 13 21 mph 1022.8mb 65f 62f
1:36 13 17 mph 1022.7mb 66f 62f
1:30 14 22 mph 1022.7mb 66f 62f
1:24 14 16 mph 1022.7mb 66f 62f
1:18 15 20 mph 1022.8mb 66f 62f
1:12 15 18 mph 1022.8mb 66f 62f
1:06 15 21 mph 1022.8mb 66f 62f
1:00 16 20 mph 1022.8mb 66f 62f
12:54 16 22 mph 1022.9mb 66f 62f
12:48 20 22 mph 1022.8mb 66f 61f
12:42 20 22 mph 1022.9mb 66f 62f
12:36 17 23 mph 1022.8mb 66f 62f
12:30 15 17 mph 1022.9mb 66f 62f
12:24 14 16 mph 1023mb 65f 62f
12:18 13 18 mph 1022.9mb 65f 62f
12:12 10 18 mph 1022.9mb 65f 62f
12:06 15 17 mph 1022.9mb 65f 62f
12:00 15 16 mph 1022.9mb 65f 61f
11:54 11 16 mph 1022.9mb 65f 62f
11:48 13 17 mph 1023mb 65f 62f
11:42 11 18 mph 1023mb 65f 62f
11:36 13 18 mph 1023mb 64f 61f
11:30 13 20 mph 1023.1mb 64f 61f
11:24 15 18 mph 1023.1mb 64f 61f
11:18 17 22 mph 1023mb 64f 61f
11:12 17 21 mph 1023mb 64f 61f
11:06 18 22 mph 1023mb 64f 61f
11:00 10 15 mph 1023mb 64f 62f
10:54 11 14 mph 1023mb 64f 62f
10:48 10 14 mph 1022.9mb 64f 61f
10:42 13 14 mph 1022.9mb 64f 61f
10:36 13 16 mph 1022.9mb 64f 61f
10:30 13 16 mph 1022.9mb 64f 61f
10:24 11 14 mph 1022.9mb 64f 61f
10:18 14 17 mph 1022.9mb 64f 61f
10:12 13 17 mph 1022.8mb 64f 61f
10:06 14 17 mph 1022.9mb 63f 61f
10:00 15 20 mph 1023mb 63f 61f
9:54 10 17 mph 1022.9mb 63f 60f
9:48 13 17 mph 1023mb 63f 60f
9:42 13 20 mph 1023mb 63f 60f
9:36 15 20 mph 1023.1mb 63f 60f
9:30 16 22 mph 1023.1mb 63f 60f
9:24 15 18 mph 1023mb 63f 60f
9:18 14 22 mph 1023mb 63f 60f
9:12 13 15 mph 1023mb 63f 60f
9:06 16 21 mph 1023mb 62f 60f
9:00 10 18 mph 1023mb 62f 60f
8:54 15 20 mph 1022.8mb 63f 60f
8:48 9 14 mph 1022.9mb 63f 60f
8:42 11 21 mph 1022.8mb 63f 60f
8:36 17 20 mph 1022.8mb 63f 60f
8:30 9 13 mph 1022.8mb 63f 60f
8:24 9 13 mph 1022.9mb 62f 60f
8:18 11 18 mph 1022.8mb 62f 60f
8:12 11 16 mph 1022.8mb 63f 60f
8:06 9 14 mph 1022.8mb 62f 60f
8:00 8 14 mph 1022.7mb 62f 60f
7:54 7 10 mph 1022.7mb 62f 59f
7:48 10 13 mph 1022.7mb 62f 60f
7:42 9 15 mph 1022.7mb 62f 60f
7:36 14 20 mph 1022.7mb 61f 59f
7:30 13 16 mph 1022.6mb 60f 59f
7:24 8 13 mph 1022.6mb 61f 60f
7:18 11 16 mph 1022.5mb 61f 59f
7:12 8 9 mph 1022.5mb 60f 60f
7:06 6 10 mph 1022.3mb 59f 60f
7:00 10 16 mph 1022.3mb 59f 60f
6:54 13 15 mph 1022.3mb 59f 60f
6:48 11 14 mph 1022.2mb 59f 60f
6:42 11 14 mph 1022.1mb 58f 59f
6:36 11 14 mph 1022.1mb 58f 60f
6:30 9 15 mph 1022.1mb 58f 60f
6:24 10 13 mph 1022.1mb 58f 59f
6:18 9 13 mph 1022mb 58f 59f
6:12 11 16 mph 1022.1mb 58f 59f
6:06 11 17 mph 1022.1mb 58f 59f
6:00 9 11 mph 1022.1mb 59f 59f
5:54 8 15 mph 1022mb 59f 59f
5:48 11 16 mph 1022mb 59f 59f
5:42 13 16 mph 1021.9mb 60f 59f
5:36 9 15 mph 1021.9mb 60f 60f
5:30 13 16 mph 1021.9mb 61f 59f
5:24 9 10 mph 1021.9mb 62f 60f
5:18 7 13 mph 1021.8mb 62f 60f
5:12 8 11 mph 1021.6mb 63f 60f
5:06 8 13 mph 1021.6mb 63f 60f
5:00 8 11 mph 1021.7mb 62f 60f
4:54 6 8 mph 1021.8mb 64f 60f
4:48 9 13 mph 1021.7mb 64f 60f
4:42 6 14 mph 1021.7mb 63f 60f
4:36 8 11 mph 1021.7mb 64f 60f
4:30 8 13 mph 1021.7mb 64f 60f
4:24 8 9 mph 1021.7mb 64f 60f
4:18 7 11 mph 1021.8mb 64f 60f
4:12 9 11 mph 1021.7mb 64f 60f
4:06 8 11 mph 1021.7mb 64f 60f
4:00 8 10 mph 1021.6mb 64f 60f
3:54 9 14 mph 1021.6mb 64f 60f
3:48 11 14 mph 1021.6mb 65f 60f
3:42 10 15 mph 1021.5mb 65f 60f
3:36 8 10 mph 1021.5mb 65f 60f
3:30 9 11 mph 1021.6mb 65f 60f
3:24 8 16 mph 1021.5mb 65f 60f
3:18 10 14 mph 1021.5mb 66f 59f
3:12 11 15 mph 1021.5mb 65f 59f
3:06 9 14 mph 1021.5mb 65f 60f
3:00 13 18 mph 1021.5mb 65f 59f
2:54 14 17 mph 1021.5mb 65f 59f
2:48 13 16 mph 1021.5mb 65f 59f
2:42 8 10 mph 1021.4mb 65f 60f
2:36 7 9 mph 1021.4mb 66f 59f
2:30 7 10 mph 1021.4mb 66f 59f
2:24 9 10 mph 1021.3mb 66f 59f
2:18 9 11 mph 1021.3mb 66f 59f
2:12 9 11 mph 1021.4mb 66f 59f
2:06 7 11 mph 1021.4mb 66f 59f
2:00 8 11 mph 1021.4mb 66f 59f
1:54 9 14 mph 1021.4mb 66f 59f
1:48 9 10 mph 1021.5mb 66f 59f
1:42 8 10 mph 1021.4mb 67f 59f
1:36 8 9 mph 1021.4mb 67f 59f
1:30 8 14 mph 1021.5mb 67f 59f
1:24 9 15 mph 1021.5mb 67f 59f
1:18 13 15 mph 1021.4mb 67f 59f
1:12 8 11 mph 1021.5mb 67f 59f
1:06 6 10 mph 1021.4mb 67f 59f
1:00 8 10 mph 1021.4mb 67f 59f
12:54 9 11 mph 1021.4mb 67f 59f
12:48 9 13 mph 1021.4mb 67f 59f
12:42 7 11 mph 1021.4mb 67f 59f
12:36 8 11 mph 1021.4mb 67f 59f
12:30 11 14 mph 1021.3mb 67f 59f
12:24 9 13 mph 1021.4mb 67f 59f
12:18 7 13 mph 1021.3mb 66f 59f
12:12 8 13 mph 1021.4mb 66f 59f
12:06 10 14 mph 1021.4mb 66f 59f
12:00 10 16 mph 1021.4mb 66f 59f
Mo 07/25 11:54 11 15 mph 1021.3mb 66f 59f
11:48 9 11 mph 1021.3mb 66f 59f
11:42 10 13 mph 1021.3mb 66f 59f
11:36 14 17 mph 1021.3mb 66f 59f
11:30 8 11 mph 1021.3mb 66f 59f
11:24 7 13 mph 1021.4mb 66f 59f
11:18 10 13 mph 1021.4mb 66f 59f
11:12 11 15 mph 1021.4mb 66f 59f
11:06 9 13 mph 1021.5mb 66f 59f
11:00 9 13 mph 1021.4mb 66f 59f
10:54 9 14 mph 1021.4mb 66f 59f
10:48 13 17 mph 1021.5mb 66f -
10:42 8 10 mph 1021.5mb 66f -
10:36 9 11 mph 1021.5mb 66f -
10:30 10 11 mph 1021.5mb 66f 59f
10:24 7 13 mph 1021.5mb 66f 59f
10:18 9 13 mph 1021.6mb 65f 59f
10:12 11 15 mph 1021.6mb 65f 59f
10:06 10 15 mph 1021.6mb 65f 59f
10:00 11 14 mph 1021.4mb 65f 59f
9:54 13 16 mph 1021.4mb 65f 59f
9:48 10 14 mph 1021.5mb 65f 59f
9:42 11 16 mph 1021.4mb 65f 59f
9:36 10 13 mph 1021.3mb 65f 59f
9:30 10 13 mph 1021.2mb 65f 59f
9:24 13 16 mph 1021.2mb 64f 59f
9:18 14 18 mph 1021.1mb 64f 59f
9:12 14 17 mph 1021mb 64f 59f
9:06 10 13 mph 1020.9mb 64f 59f
9:00 10 14 mph 1020.9mb 64f 60f
8:54 13 15 mph 1020.9mb 64f 60f
8:48 11 15 mph 1020.9mb 64f 60f
8:42 7 13 mph 1020.8mb 64f 60f
8:36 9 15 mph 1020.8mb 64f 60f
8:30 9 14 mph 1020.9mb 64f 60f
8:24 11 14 mph 1020.9mb 64f 60f
8:18 10 13 mph 1020.8mb 64f 60f
8:12 13 18 mph 1020.7mb 64f 60f
8:06 15 18 mph 1020.7mb 64f 60f
8:00 10 14 mph - 64f 60f
7:54 13 15 mph - 65f 60f
7:48 10 15 mph 1020.7mb - -
7:42 11 15 mph 1020.7mb - -
7:36 10 17 mph 1020.6mb - -
7:30 14 17 mph - 63f 60f
7:24 10 14 mph - 64f 60f
7:18 7 15 mph - 61f 60f
7:12 13 16 mph - 60f 60f
7:06 8 13 mph - 61f 60f
7:00 10 17 mph - 61f 60f
6:54 10 14 mph - 60f 60f
6:48 10 15 mph 1020.5mb 59f -
6:42 11 17 mph 1020.4mb 58f -
6:36 16 21 mph 1020.5mb 59f -
6:30 16 20 mph - 58f -
6:24 9 14 mph - 58f -
6:18 13 17 mph - 58f 61f
6:12 13 20 mph - 58f 61f
6:06 14 20 mph - 58f 61f
6:00 16 21 mph - 58f 61f
5:54 17 20 mph - 58f 61f
5:48 13 16 mph - - -
5:42 15 18 mph - - -
5:36 14 18 mph - - -
5:30 13 17 mph - 61f 62f
5:24 10 16 mph - 61f 62f
5:18 11 16 mph - 62f -
5:12 15 17 mph - 62f -
5:06 14 16 mph - 62f -
5:00  -  mph - 62f 62f
4:54  -  mph - 62f 62f
4:48 15 17 mph 1020.5mb - -
4:42 13 16 mph 1020.5mb - -
4:36 14 16 mph 1020.5mb - -
4:30  -  mph - 64f -
4:24  -  mph - 65f -
4:18 13 16 mph 1020.6mb 64f -
4:12 14 20 mph 1020.6mb 65f -
4:06 13 20 mph 1020.6mb 66f -
4:00  -  mph - 65f 62f
3:54  -  mph - 65f 62f
3:48 15 17 mph 1020.6mb 65f -
3:42 14 16 mph 1020.6mb 65f -
3:36 15 18 mph 1020.6mb 66f -
3:30 11 18 mph 1020.5mb 66f -
3:24 15 17 mph 1020.6mb 66f -
3:18 13 16 mph - 66f 62f
3:12 13 17 mph - 66f 62f
3:06 13 17 mph - 67f 63f
3:00  -  mph - 67f -
2:54  -  mph - 66f -
2:48  -  mph - 67f 63f
2:42  -  mph - 67f 63f
2:36  -  mph - 67f 63f
2:30 14 17 mph 1020.3mb 67f 64f
2:24 14 20 mph 1020.3mb 67f 64f
2:18 13 16 mph 1020.3mb 68f 64f
2:12 14 17 mph 1020.4mb 67f 64f
2:06 15 17 mph 1020.3mb 68f 64f
2:00 14 16 mph 1020.3mb 68f 64f
1:54 14 18 mph 1020.3mb 67f 64f
1:48 13 16 mph 1020.2mb 67f 65f
1:42 11 18 mph 1020.3mb 67f 65f
1:36 16 18 mph 1020.2mb 68f 65f
1:30 13 17 mph 1020.2mb 67f 65f
1:24 13 18 mph 1020.3mb 67f 65f
1:18 9 15 mph 1020.3mb 67f 65f
1:12 11 14 mph 1020.3mb 68f 65f
1:06 14 17 mph 1020.4mb 67f 65f
1:00 9 13 mph 1020.3mb 67f 66f
12:54 11 16 mph 1020.4mb 68f 65f
12:48 5 14 mph 1020.4mb 68f 66f
12:42 8 14 mph 1020.4mb 68f 65f
12:36 9 11 mph 1020.4mb 68f 65f
12:30 10 14 mph 1020.4mb 68f 65f
12:24 11 13 mph 1020.3mb 68f 65f
12:18 9 13 mph 1020.3mb 68f 65f
12:12 9 13 mph 1020.3mb 68f 65f
12:06 8 11 mph 1020.4mb 68f 64f
12:00 9 13 mph 1020.4mb 68f 65f
11:54 6 9 mph 1020.4mb 68f 64f
11:48 5 9 mph 1020.4mb 68f 64f
11:42 8 11 mph 1020.5mb 67f 64f
11:36 7 9 mph 1020.5mb 67f 63f
11:30 5 9 mph 1020.5mb 67f 63f
11:24 7 10 mph 1020.5mb 67f 63f
11:18 6 8 mph 1020.5mb 67f 63f
11:12 6 14 mph 1020.5mb 67f 63f
11:00 6 7 mph 1020.5mb 67f 63f
10:54 6 10 mph 1020.5mb 66f 63f
10:48 9 11 mph 1020.4mb 66f 62f
10:42 8 10 mph 1020.4mb 66f 62f
10:36 6 8 mph 1020.3mb 66f 62f
10:30 7 10 mph 1020.2mb 66f 62f
10:24 9 11 mph 1020.2mb 66f 62f
10:18 6 8 mph 1020.3mb 66f 62f
10:12 1 5 mph 1020.3mb 66f 62f
10:06 5 7 mph 1020.3mb 66f 62f
10:00 6 7 mph 1020.3mb 65f 62f
9:54 3 8 mph 1020.2mb 66f 61f
9:48 6 9 mph 1020.3mb 66f 62f
9:42 7 8 mph 1020.3mb 66f 61f
9:36 5 9 mph 1020.3mb 66f 61f
9:30 9 10 mph 1020.3mb 65f 61f
9:24 6 7 mph 1020.2mb 66f 61f
9:18 6 9 mph 1020.3mb 65f 61f
9:12 6 8 mph 1020.3mb 65f 61f
9:06 7 8 mph 1020.2mb 65f 61f
9:00 8 11 mph 1020.2mb 65f 61f
8:54 8 10 mph 1020.1mb 65f 61f
8:48 8 11 mph 1020.1mb 65f 61f
8:42 6 9 mph 1020.1mb 65f 61f
8:36 8 9 mph 1020mb 65f 60f
8:30 7 8 mph 1020mb 65f 60f
8:24 6 8 mph 1020mb 65f 60f
8:18 5 7 mph 1020mb 65f 60f
8:12 6 9 mph 1020.1mb 65f 60f
8:06 6 8 mph 1020.1mb 65f 60f
8:00 6 7 mph 1020.1mb 65f 60f
7:54 6 7 mph 1020mb 65f 60f
7:48 6 8 mph 1020mb 65f 60f
7:42 6 8 mph 1019.9mb 65f 60f
7:36 5 7 mph 1019.9mb 64f 59f
7:30 5 6 mph 1019.9mb 64f 59f
7:24 2 7 mph 1019.8mb 65f 59f
7:18 3 5 mph 1019.7mb 65f 59f
7:12 5 6 mph 1019.7mb 65f 59f
7:06 5 7 mph 1019.7mb 64f 59f
7:00 5 7 mph 1019.7mb 64f 59f
6:54 5 9 mph 1019.6mb 65f 59f
6:48 6 8 mph 1019.6mb 64f 59f
6:42 7 9 mph 1019.5mb 64f 59f
6:36 5 8 mph 1019.5mb 63f 59f
6:30 7 8 mph 1019.5mb 63f 59f
6:24 5 7 mph 1019.6mb 63f 59f
6:18 6 8 mph 1019.5mb 63f 59f
6:12 7 9 mph 1019.4mb 63f 59f
6:06 8 10 mph 1019.4mb 63f 59f
6:00 7 10 mph 1019.3mb 63f 59f
5:54 7 11 mph 1019.3mb 62f 59f
5:48 7 9 mph 1019.2mb 62f 59f
5:42 7 13 mph 1019.2mb 62f 59f
5:36 8 10 mph 1019.2mb 62f 59f
5:30 8 11 mph 1019.1mb 62f 59f
5:24 6 10 mph 1019.1mb 62f 59f
5:18 8 10 mph 1019mb 62f 59f
5:12 8 10 mph 1019mb 62f 59f
5:06 8 14 mph 1019mb 62f 59f
5:00 7 9 mph 1019mb 62f 59f
4:54 8 11 mph 1018.9mb 63f 59f
4:48 9 11 mph 1018.9mb 63f 58f
4:42 6 9 mph 1018.8mb 63f 59f
4:36 7 11 mph 1018.8mb 64f 59f
4:30 6 10 mph 1018.8mb 64f 59f
4:24 7 9 mph 1018.8mb 64f 59f
4:18 7 9 mph 1018.8mb 64f 59f
4:12 7 8 mph 1018.7mb 65f 58f
4:06 6 8 mph 1018.7mb 64f 59f
4:00 6 7 mph 1018.7mb 65f 59f
3:54 6 11 mph 1018.7mb 65f 59f
3:48 6 10 mph 1018.7mb 65f 59f
3:42 7 13 mph 1018.7mb 65f 59f
3:36 7 13 mph 1018.7mb 65f 59f
3:30 8 11 mph 1018.6mb 65f 59f
3:24 7 11 mph 1018.6mb 66f 59f
3:18 9 14 mph 1018.6mb 66f 59f
3:12 6 9 mph 1018.5mb 66f 59f
3:06 8 9 mph 1018.5mb 66f 59f
3:00 7 8 mph 1018.5mb 66f 59f
2:54 5 8 mph 1018.5mb 66f 59f
2:48 6 7 mph 1018.4mb 67f 59f
2:42 7 9 mph 1018.4mb 67f 59f
2:36 6 9 mph 1018.4mb 67f 59f
2:30 8 14 mph 1018.4mb 67f 59f
2:24 9 13 mph 1018.4mb 67f 59f
2:18 9 13 mph 1018.4mb 67f 59f
2:12 9 13 mph 1018.4mb 67f 59f
2:06 9 14 mph 1018.4mb 68f 60f
2:00 10 15 mph 1018.4mb 68f 59f
1:54 11 14 mph 1018.4mb 68f 60f
1:48 11 15 mph 1018.3mb 68f 60f
1:42 9 11 mph 1018.3mb 67f 60f
1:36 9 11 mph 1018.4mb 68f 60f
1:30 8 13 mph 1018.4mb 68f 60f
1:24 6 13 mph 1018.4mb 68f 60f
1:18 10 14 mph 1018.5mb 67f 60f
1:12 11 15 mph 1018.5mb 67f 60f
1:06 9 13 mph 1018.5mb 68f 60f
1:00 9 15 mph 1018.5mb 68f 60f
12:54 9 14 mph 1018.5mb 68f 60f
12:48 7 11 mph 1018.5mb 68f 60f
12:42 8 9 mph 1018.5mb 68f 60f
12:36 7 8 mph 1018.5mb 69f 60f
12:30 6 8 mph 1018.4mb 69f 60f
12:24 6 7 mph 1018.3mb 69f 60f
12:18 3 6 mph 1018.3mb 69f 60f
12:12 5 6 mph 1018.2mb 69f 60f
12:06 3 5 mph 1018.2mb 69f 60f
12:00 3 5 mph 1018.2mb 69f 59f
So 07/24 11:54 5 6 mph 1018.2mb 69f 60f
11:48 3 6 mph 1018.2mb 69f 60f
11:42 3 5 mph 1018.1mb 69f 60f
11:36 3 5 mph 1018mb 69f 60f
11:30 3 5 mph 1018mb 69f 60f
11:24 1 2 mph 1017.9mb 69f 60f
11:18 2 3 mph 1017.9mb 69f 60f
11:12 2 3 mph 1018mb 69f 60f
11:06 3 6 mph 1018.1mb 69f 60f
11:00 5 6 mph 1018.1mb 69f 60f
10:54 3 7 mph 1018.1mb 69f 61f
10:48 5 6 mph 1018.1mb - -
10:42 3 5 mph 1018.2mb - -
10:36 5 6 mph 1018.2mb - -
10:30 2 7 mph 1018.2mb 69f 61f
10:24 6 8 mph 1018.2mb 69f 61f
10:18 7 9 mph 1018.2mb 69f 61f
10:12 8 11 mph 1018.3mb 69f 61f
10:06 7 13 mph 1018.3mb 70f 61f
10:00 8 10 mph 1018.2mb 69f 61f
9:54 8 10 mph 1018.2mb 69f 61f
9:48 9 13 mph 1018.1mb 69f 61f
9:42 6 9 mph 1018.1mb 69f 61f
9:36 7 14 mph 1018.1mb 69f 61f
9:30 7 13 mph 1018mb 69f 61f
9:24 10 14 mph 1017.9mb 68f 61f
9:18 10 11 mph 1017.8mb 68f 61f
9:12 8 9 mph 1017.8mb 68f 61f
9:06 7 11 mph 1017.8mb 68f 62f
9:00 7 13 mph 1017.8mb 68f 62f
8:54 8 11 mph 1017.8mb 68f 62f
8:48 9 11 mph 1017.8mb 68f 62f
8:42 11 14 mph 1017.7mb 67f 62f
8:36 10 14 mph 1017.7mb 67f 62f
8:30 8 10 mph 1017.7mb 67f 63f
8:24 7 10 mph 1017.8mb 67f 63f
8:18 6 17 mph - 67f 63f
8:12 14 17 mph - 67f 63f
8:06 15 18 mph - 67f 63f
8:00  -  mph 1017.8mb 67f -
7:54  -  mph 1017.7mb 67f -
7:48 13 18 mph 1017.6mb 67f -
7:42 10 14 mph 1017.6mb 67f -
7:36 14 18 mph 1017.7mb 67f -
7:30 14 21 mph - 67f -
7:24 16 21 mph - 67f -
7:18 10 17 mph 1017.7mb 67f 64f
7:12 14 17 mph 1017.7mb 67f 64f
7:06 15 21 mph 1017.6mb 67f 64f
7:00  -  mph - 67f 64f
6:54  -  mph - 67f 64f
6:48 17 21 mph - 65f -
6:42 11 18 mph - 64f -
6:36 15 18 mph - 63f -
6:30 16 22 mph 1017.8mb 64f -
6:24 20 23 mph 1017.8mb 63f -
6:18 21 24 mph 1017.8mb 63f -
6:12 20 25 mph 1017.9mb 64f -
6:06 18 22 mph 1017.9mb 62f -
6:00 20 23 mph - 62f 65f
5:54 16 22 mph - 61f 65f
5:48 16 22 mph 1018mb 61f -
5:42 16 20 mph 1018.1mb 61f -
5:36 15 22 mph 1018.1mb 61f -
5:30 15 20 mph - - -
5:24 16 20 mph - - -
5:18 14 18 mph - 61f 66f
5:12 15 21 mph - 62f 66f
5:06 18 23 mph - 62f 66f
5:00  -  mph - 63f 66f
4:54  -  mph - 64f 66f
4:48 16 21 mph - - -
4:42 15 21 mph - - -
4:36 14 18 mph - - -
4:30 16 21 mph - 65f -
4:24 18 22 mph - 65f -
4:18 17 21 mph - 65f -
4:12 16 20 mph - 65f -
4:06 14 21 mph - 65f -
4:00  -  mph - 65f 67f
3:54  -  mph - 65f 67f
3:48 18 23 mph - - -
3:42 14 18 mph - - -
3:36 17 20 mph - - -
3:30 16 21 mph - 66f -
3:24 15 18 mph - 66f -
3:18 15 20 mph 1018.7mb 66f 68f
3:12 15 21 mph 1018.6mb 66f 68f
3:06 18 22 mph 1018.7mb 66f 67f
3:00  -  mph - 66f 67f
2:54  -  mph - 66f 67f
2:48 20 22 mph - 66f 67f
2:42 18 23 mph - 66f 67f
2:36 18 23 mph - 66f 67f
2:30 20 24 mph 1019.1mb 66f 66f
2:24 22 24 mph 1019.1mb 67f 66f
2:18 22 26 mph 1019.1mb 67f 66f
2:12 18 24 mph 1019.1mb 67f 67f
2:06 21 23 mph 1019.1mb 67f 67f
2:00 20 22 mph 1019.1mb 67f 67f
1:54 17 21 mph 1019.1mb 66f 68f
1:48 17 22 mph 1019.2mb 67f 68f
1:42 11 22 mph 1019.3mb 68f 69f
1:36 14 20 mph 1019.3mb 68f 69f
1:30 13 18 mph 1019.3mb 68f 69f
1:24 13 16 mph 1019.4mb 68f 69f
1:18 14 20 mph 1019.4mb 68f 69f
1:12 14 21 mph 1019.4mb 67f 69f
1:06 15 18 mph 1019.4mb 67f 69f
1:00 13 22 mph 1019.4mb 68f 69f
12:54 16 22 mph 1019.4mb 67f 69f
12:48 17 20 mph 1019.5mb 67f 69f
12:42 14 22 mph 1019.6mb 66f 69f
12:36 15 17 mph 1019.5mb 66f 69f
12:30 6 13 mph 1019.6mb 66f 70f
12:24 8 11 mph 1019.5mb 66f 70f
12:18 2 5 mph 1019.7mb 66f -
12:12 2 3 mph 1019.7mb 66f 70f
12:06 3 5 mph 1019.7mb 66f 69f
12:00 3 6 mph 1019.8mb 66f 68f
11:54 2 6 mph 1019.9mb 66f 69f
11:48 5 6 mph 1019.9mb 66f 68f
11:42 5 7 mph 1020mb 66f 68f
11:36 3 7 mph 1020mb 66f 68f
11:30 6 9 mph 1020.1mb 67f 68f
11:24 6 7 mph 1020.1mb 67f 67f
11:18 5 6 mph 1020.2mb 67f 67f
11:12 6 7 mph 1020.2mb 66f 67f
11:06 5 7 mph 1020.2mb 66f 67f
11:00 3 6 mph 1020.2mb 66f 66f
10:54 5
mph
1020.2mb 66f 64f
10:48 5 6 mph 1020.3mb 66f 64f
10:42 5 6 mph 1020.4mb 66f 64f
10:36 5 6 mph 1020.4mb 66f 64f
10:30 3 5 mph 1020.5mb 66f 64f
10:24 3 5 mph 1020.5mb 66f 63f
10:18 2 3 mph 1020.6mb 66f 62f
10:12 3 5 mph 1020.6mb 66f 61f
10:06 3 5 mph 1020.7mb 66f 60f
10:00 3 5 mph 1020.7mb 66f 60f
9:54 3 5 mph 1020.8mb 65f 60f
9:48 3 5 mph 1020.9mb 65f 59f
9:42 3 5 mph 1020.9mb 65f 59f
9:36 3 5 mph 1021mb 65f 59f
9:30 5
mph
1021.1mb 65f 58f
9:24 3 5 mph 1021.1mb 65f 58f
9:18 3 5 mph 1021.1mb 65f 59f
9:12 3
mph
1021.1mb 65f 58f
9:06 3
mph
1021.1mb 65f 58f
9:00 2 3 mph 1021.1mb 65f 58f
8:54 2 5 mph 1021.1mb 65f 58f
8:48 5
mph
1021.1mb 65f 57f
8:42 3 5 mph 1021.1mb 65f 57f
8:36 3 5 mph 1021.1mb 65f 56f
8:30 6
mph
1021mb 65f 56f
8:24 6 7 mph 1021mb 64f 56f
8:18 6 7 mph 1021mb 64f 56f
8:12 6 7 mph 1021mb 64f 56f
8:06 3 6 mph 1021mb 64f 56f
8:00 3 5 mph 1021.1mb 64f 55f
7:54 5 7 mph 1021.1mb 64f 55f
7:48 3 7 mph 1021.1mb 64f 55f
7:42 5 7 mph 1021.1mb 64f 55f
7:36 5 7 mph 1021.1mb 64f 55f
7:30 3 6 mph 1021.1mb 64f 55f
7:24 5 6 mph 1021.1mb 64f 55f
7:18 5 6 mph 1021.1mb 64f 55f
7:12 6 7 mph 1021.2mb 64f 55f
7:06 6 7 mph 1021.1mb 64f 55f
7:00 6 7 mph 1021.1mb 64f 55f
6:54 5 6 mph 1021.1mb 64f 55f
6:48 5 7 mph 1021mb 64f 55f
6:42 6 7 mph 1021mb 64f 55f
6:36 6 7 mph 1021mb 64f 56f
6:30 6 7 mph 1021mb 64f 56f
6:24 6
mph
1021.1mb 64f 56f
6:18 5 7 mph 1021.1mb 64f 56f
6:12 5 6 mph 1021.1mb 64f 56f
6:06 6 7 mph 1021.1mb 64f 56f
6:00 5 8 mph 1021.1mb 64f 56f
5:54 6 7 mph 1021mb 64f 57f
5:48 6 7 mph 1021.1mb 64f 57f
5:42 6
mph
1021.1mb 64f 57f
5:36 6
mph
1021.1mb 64f 57f
5:30 5 6 mph 1021mb 64f 57f
5:24 5 6 mph 1021mb 64f 57f
5:18 3 6 mph 1021mb 64f 57f
5:12 5 6 mph 1021mb 64f 57f
5:06 6
mph
1021.1mb 64f 58f
5:00 6 7 mph 1021.1mb 64f 58f
4:54 6 8 mph 1021.1mb 64f 58f
4:48 7 8 mph 1021.2mb 64f 58f
4:42 6 8 mph 1021.2mb 64f 58f
4:36 6 7 mph 1021.2mb 63f 58f
4:30 3 6 mph 1021.2mb 64f 58f
4:24 5 6 mph 1021.2mb 64f 58f
4:18 6
mph
1021.3mb 64f 58f
4:12 5 6 mph 1021.3mb 64f 58f
4:06 6 7 mph 1021.3mb 64f 58f
4:00 5 6 mph 1021.3mb 64f 58f
3:54 5 7 mph 1021.3mb 64f 58f
3:48 3 6 mph 1021.4mb 64f 58f
3:42 5 7 mph 1021.4mb 64f 58f
3:36 5 7 mph 1021.5mb 64f 59f
3:30 5 6 mph 1021.5mb 64f 59f
3:24 3 6 mph 1021.6mb 64f 59f
3:18 5 6 mph 1021.7mb 65f 59f
3:12 2 3 mph 1021.7mb 65f 59f
3:06 2 5 mph 1021.7mb 65f 59f
3:00 3 5 mph 1021.8mb 65f 59f
2:54 3 6 mph 1021.9mb 65f 59f
2:48 5 6 mph 1021.9mb 65f 59f
2:42 3 5 mph 1021.9mb 65f 59f
2:36 2 5 mph 1021.9mb 65f 59f
2:30 2 5 mph 1022mb 66f 59f
2:24 3 6 mph 1022.1mb 66f 59f
2:18 5 6 mph 1022.1mb 66f 59f
2:12 3 5 mph 1022.2mb 65f 60f
2:06 3 6 mph 1022.2mb 66f 59f
2:00 2 3 mph 1022.2mb 66f 60f
1:54 3 5 mph 1022.2mb 66f 60f
1:48 1 6 mph 1022.2mb 66f 60f
1:42 2 5 mph 1022.3mb 66f 60f
1:36 3 6 mph 1022.3mb 66f 60f
1:30 3 5 mph 1022.3mb 66f 60f
1:24 5 8 mph 1022.3mb 66f 60f
1:18 5 8 mph 1022.4mb 66f 60f
1:12 6
mph
1022.5mb 66f 60f
1:06 5 6 mph 1022.5mb 67f 60f
1:00 6 7 mph 1022.6mb 67f 60f
12:54 5 6 mph 1022.6mb 67f 60f
12:48 6 7 mph 1022.7mb 67f 60f
12:42 5 6 mph 1022.6mb 67f 60f
12:36 3 6 mph 1022.7mb 67f 60f
12:30 5 7 mph 1022.6mb 67f 59f
12:24 3 6 mph 1022.6mb 67f 60f
12:18 3 6 mph 1022.6mb 67f 59f
12:12 6 8 mph 1022.7mb 67f 60f
12:06 5 6 mph 1022.7mb 67f 59f
12:00 3 6 mph 1022.8mb 67f 59f
Sa 07/23 11:54 5 6 mph 1022.8mb 67f 60f
11:48 5 6 mph 1022.9mb 67f 60f
11:42 2 5 mph 1023mb 67f 60f
11:36 2 3 mph 1023.1mb 68f 60f
11:30 2 3 mph 1023.2mb 68f 60f
11:24 3 5 mph 1023.2mb 68f 60f
11:18 2 5 mph 1023.3mb 68f 60f
11:12 2 5 mph 1023.3mb 68f 60f
11:06 3 6 mph 1023.4mb 68f 60f
11:00 2 3 mph 1023.5mb 68f 60f
10:54 1 2 mph 1023.6mb 68f 60f
10:48 1 3 mph 1023.6mb 68f 60f
10:42 2 5 mph 1023.7mb 68f 60f
10:36 2 5 mph 1023.8mb 68f 60f
10:30 3 7 mph 1023.8mb 67f 60f
10:24 6 8 mph 1023.8mb 67f 60f
10:18 3 6 mph 1023.9mb 68f 60f
10:12 5 6 mph 1023.9mb 68f 60f
10:06 3 7 mph 1024mb 68f 60f
10:00 5 7 mph 1023.9mb 68f 60f
9:54 7 8 mph 1023.9mb 68f 60f
9:48 8 10 mph 1023.8mb 68f 60f
9:42 8 11 mph 1023.8mb 67f 61f
9:36 9 13 mph 1023.8mb 68f 61f
9:30 10 14 mph 1023.8mb 68f 61f
9:24 9 11 mph 1023.8mb 68f 61f
9:12 7 9 mph 1023.8mb 67f 61f
9:06 8 10 mph 1023.8mb 68f 61f
9:00 8 11 mph 1023.8mb 68f 61f
8:54 7 9 mph 1023.9mb 68f 61f
8:48 8 10 mph 1023.9mb 67f 61f
8:42 8 10 mph 1023.9mb 67f 61f
8:36 9 10 mph 1024mb 67f 62f
8:30 9 14 mph 1024mb 67f 62f
8:24 13 15 mph 1024mb 67f 62f
8:18 10 15 mph - 67f 62f
8:12 10 18 mph - 67f 62f
8:06 13 14 mph - 67f 62f
8:00  -  mph - 67f 63f
7:54  -  mph - 67f 63f
7:48 10 15 mph 1024.2mb - -
7:42 14 18 mph 1024.2mb - -
7:36 16 18 mph 1024.2mb - -
7:30 14 17 mph 1024.3mb - -
7:24 13 16 mph 1024.3mb - -
7:18  -  mph 1024.3mb 66f 63f
7:12  -  mph 1024.2mb 66f 63f
7:06  -  mph 1024.2mb 66f 63f
7:00  -  mph - 66f 63f
6:54  -  mph - 66f 64f
6:48  -  mph - 66f -
6:42  -  mph - 66f -
6:36  -  mph - 67f -
6:30 16 20 mph - - -
6:24 13 18 mph - - -
6:18 15 18 mph - 65f -
6:12 14 18 mph - 65f -
6:06 14 16 mph - 65f -
6:00  -  mph - 65f 64f
5:54  -  mph - 64f 64f
5:48 16 20 mph 1024.8mb - -
5:42 14 20 mph 1024.9mb - -
5:36 16 18 mph 1024.8mb - -
5:30 15 21 mph - - -
5:24 13 20 mph - - -
5:18 15 18 mph 1025mb 63f -
5:12 14 20 mph 1025mb 63f -
5:06 15 20 mph 1025mb 63f -
5:00  -  mph - 63f -
4:54  -  mph - 63f -
4:48 14 17 mph - - -
4:42 16 20 mph - - -
4:36 16 21 mph - - -
4:30 15 21 mph - - -
4:24 16 22 mph - - -
4:18 15 20 mph 1025.3mb 63f 64f
4:12 17 21 mph 1025.4mb 63f 64f
4:06 15 22 mph 1025.5mb 64f 64f
4:00  -  mph - 64f 64f
3:54  -  mph - 64f 64f
3:48  -  mph - 65f 64f
3:42  -  mph - 65f 64f
3:36  -  mph - 65f 64f
3:30 18 21 mph - - -
3:24 17 24 mph - - -
3:18  -  mph - 66f -
3:12  -  mph - 65f -
3:06  -  mph - 66f -
3:00  -  mph - 65f -
2:54  -  mph - 65f -
2:48 14 18 mph 1025.6mb - 64f
2:42 13 21 mph 1025.6mb - 64f
2:36 13 17 mph 1025.6mb - 64f
2:30 13 17 mph 1025.7mb 66f 64f
2:24 13 17 mph 1025.7mb 66f 64f
2:18 15 16 mph 1025.7mb 66f 64f
2:12 14 17 mph 1025.7mb 66f 64f
2:06 15 17 mph 1025.6mb 66f 64f
2:00 15 18 mph 1025.6mb 66f 64f
1:54 15 20 mph 1025.5mb 66f 64f
1:48 16 18 mph 1025.6mb 66f 64f
1:42 14 18 mph 1025.7mb 66f 64f
1:36 14 16 mph 1025.8mb 66f 64f
1:30 14 17 mph 1025.7mb 67f 63f
1:24 15 17 mph 1025.7mb 67f 64f
1:18 17 20 mph 1025.7mb 66f 64f
1:12 16 17 mph 1025.7mb 66f 64f
1:06 14 17 mph 1025.8mb 66f 64f
1:00 14 17 mph 1025.8mb 66f 64f
12:54 11 14 mph 1025.8mb 67f 64f
12:48 13 16 mph 1025.8mb 67f 64f
12:42 14 16 mph 1025.8mb 67f 64f
12:36 10 16 mph 1025.7mb 67f 64f
12:30 10 15 mph 1025.7mb 67f 64f
12:24 11 14 mph 1025.7mb 67f 64f
12:18 13 15 mph 1025.8mb 67f 64f
12:12 10 16 mph 1025.8mb 67f 64f
12:06 11 14 mph 1025.9mb 67f 64f